Airfield :
LOGIN :

Register | Disclaimer

   EN    FR    IT 

 










Legend :    VFR   Marginal VFR   IFR   Intensive IFR   Very Intensive IFR
Visi :
Ceiling :
>= 8 km
>= 3000ft
5 to 8 km
1000 to 3000 ft
1500m to 5 km
500 to 1000 ft
800 to 1500m
200 to 500 ft
< 800m
< 200 ft
Symbols :   Thunderstorms  Fog  Heavy snow  Heavy precipitations  Wind > 20 kt
SIGMETs :     Misc.  Thunderstorms  Icing  Turbulence  Mountain Waves  Volcanic Ashes






- Airport Elevation : 3368 ft


LSGC - Les Eplatures

CURRENT METAR :
  • 031250Z 25008KT 220V280 8000 SCT007 BKN011 OVC013 12/11 Q1017

EXPIRED METARs :
  • 031220Z 23004KT 180V280 9000 SCT006 BKN012 12/12 Q1017
  • 031150Z 23005KT 190V280 8000 -RA SCT007 BKN015 12/11 Q1017
  • 031120Z 25006KT 210V280 6000 -RA SCT007 BKN015 12/11 Q1017
  • 031050Z 23006KT 180V260 9000 RA SCT014 BKN017 12/11 Q1017
  • 031020Z AUTO 24009KT 190V260 9999 -RA BKN009 BKN011 BKN013 12/11 Q1018

TAF TAF LSGC
Valid from the 03 at 12:00 until the 03 at 21:00 UTC


031125Z 0312/0321 25010KT 9999 FEW012 SCT020 BKN030
BECMG 0316/0318 VRB02KT RA BKN012



MET'MAP, your aeronautical weather chart ! - Copyright ORBIFLY December 2007 - Disclaimer

ORBIFLY MET'MAP TEAM :

Programming & Development : Alexandra Zaïnal
Concept & original design : Baudouin d'Aumeries
Assistance for programming : Marc-Olivier Méhu
Technical & hardware support : Manuel Goepfert

Contact : metmap@orbifly.com




SOURCES & CREDITS :

   NOAA